Terminal Aerodrome Forecast
Issued by NWS Pocatello, ID

Home | Current Version | Previous Version | Text Only | Print | Product List | Glossary On
Versions: 1 2 3 4 5 6 7 8 9 10 11 12 13 14 15 16
000
FTUS45 KPIH 292323
TAFIDA
TAF
KIDA 292323Z 3000/3024 20020G30KT P6SM VCTS OVC100CB
      TEMPO 3000/3004 VRB20G40KT -TSRA OVC050CB
     FM300400 20011KT P6SM SCT070
     FM301800 21023G33KT P6SM BKN100=

USA.gov is the U.S. government's official web portal to all federal, state and local government web resources and services.